Time;durP1;ratioP1;P1;durP2;ratioP2;P2;SDS_P1;SDS_P2;PMS_P1;PMS_P2;Temp;Humidity;BMP_temperature;BMP_pressure;BME280_temperature;BME280_humidity;BME280_pressure;Samples;Min_cycle;Max_cycle;Signal;HPM_P1;HPM_P2
2023/11/22 00:01:18;;;;;;;26.48;17.35;;;;;;;6.36;100.00;101846.88;4970282;28;20078;-79
2023/11/22 00:06:21;;;;;;;24.17;16.70;;;;;;;6.34;100.00;101846.97;4959751;28;20054;-81
2023/11/22 00:08:48;;;;;;;27.55;16.73;;;;;;;6.25;100.00;101825.00;4961588;29;20081;-81
2023/11/22 00:11:16;;;;;;;25.65;15.43;;;;;;;6.38;100.00;101845.03;4953597;29;20043;-81
2023/11/22 00:13:43;;;;;;;25.45;15.88;;;;;;;6.39;100.00;101857.09;4961065;28;20047;-80
2023/11/22 00:16:10;;;;;;;27.00;16.40;;;;;;;6.38;100.00;101845.03;4962017;28;20111;-81
2023/11/22 00:18:38;;;;;;;27.58;16.20;;;;;;;6.26;100.00;101837.06;4960167;28;20059;-80
2023/11/22 00:21:05;;;;;;;26.15;16.95;;;;;;;6.36;100.00;101849.47;4960250;28;20054;-81
2023/11/22 00:23:32;;;;;;;23.45;15.98;;;;;;;6.40;100.00;101850.97;4961105;28;20076;-81
2023/11/22 00:25:59;;;;;;;25.88;16.45;;;;;;;6.42;100.00;101844.72;4961217;29;20110;-81
2023/11/22 00:28:27;;;;;;;26.50;16.80;;;;;;;6.42;100.00;101841.28;4961192;28;20115;-81
2023/11/22 00:30:54;;;;;;;24.83;16.55;;;;;;;6.41;100.00;101848.25;4962074;29;20056;-81
2023/11/22 00:33:21;;;;;;;24.55;16.23;;;;;;;6.38;100.00;101838.06;4964079;28;20130;-81
2023/11/22 00:35:47;;;;;;;25.15;17.23;;;;;;;6.35;100.00;101845.22;4964684;28;20055;-80
2023/11/22 00:38:14;;;;;;;27.73;17.10;;;;;;;6.39;100.00;101847.53;4961774;29;20047;-81
2023/11/22 00:40:41;;;;;;;26.63;17.10;;;;;;;6.39;100.00;101851.88;4962258;28;20151;-81
2023/11/22 00:43:08;;;;;;;23.65;16.13;;;;;;;6.45;100.00;101857.53;4960896;28;20074;-81
2023/11/22 00:45:36;;;;;;;24.77;16.30;;;;;;;6.52;100.00;101852.75;4960619;28;20057;-80
2023/11/22 00:48:03;;;;;;;26.55;16.58;;;;;;;6.56;100.00;101856.84;4960721;28;20134;-80
2023/11/22 00:50:29;;;;;;;23.02;16.25;;;;;;;6.51;100.00;101848.50;4960412;28;20043;-81
2023/11/22 00:52:56;;;;;;;24.88;16.55;;;;;;;6.44;100.00;101845.47;4959518;28;20506;-80
2023/11/22 00:55:23;;;;;;;26.48;16.55;;;;;;;6.51;100.00;101857.13;4966169;29;20097;-81
2023/11/22 00:57:49;;;;;;;26.90;16.85;;;;;;;6.46;100.00;101850.56;4973143;28;20074;-81
2023/11/22 01:00:17;;;;;;;26.92;17.05;;;;;;;6.46;100.00;101859.19;4973669;28;20139;-79
2023/11/22 01:02:45;;;;;;;29.10;18.00;;;;;;;6.46;100.00;101855.75;4974459;28;20050;-80
2023/11/22 01:05:12;;;;;;;28.33;17.92;;;;;;;6.47;100.00;101849.63;4974809;28;20047;-80
2023/11/22 01:07:39;;;;;;;28.23;18.27;;;;;;;6.42;100.00;101851.69;4973089;29;20051;-80
2023/11/22 01:10:07;;;;;;;29.75;17.98;;;;;;;6.31;100.00;101850.63;4974104;28;20075;-80
2023/11/22 01:12:34;;;;;;;32.10;17.85;;;;;;;6.26;100.00;101859.63;4972731;28;20051;-79
2023/11/22 01:15:00;;;;;;;28.75;17.30;;;;;;;6.31;100.00;101866.22;4958911;29;20484;-79
2023/11/22 01:17:27;;;;;;;27.92;17.20;;;;;;;6.21;100.00;101869.50;4958015;28;20491;-79
2023/11/22 01:19:55;;;;;;;28.42;17.98;;;;;;;6.29;100.00;101868.06;4956604;28;20079;-79
2023/11/22 01:22:22;;;;;;;24.63;16.58;;;;;;;6.19;100.00;101876.53;4954425;28;20138;-79
2023/11/22 01:24:48;;;;;;;27.13;17.70;;;;;;;6.18;100.00;101882.69;4954707;29;20146;-79
2023/11/22 01:27:15;;;;;;;27.02;17.25;;;;;;;6.24;100.00;101885.72;4953949;29;20134;-79
2023/11/22 01:29:42;;;;;;;27.45;17.00;;;;;;;6.23;100.00;101878.84;4953704;28;20055;-79
2023/11/22 01:32:09;;;;;;;27.02;17.45;;;;;;;6.19;100.00;101887.78;4953135;28;20054;-79
2023/11/22 01:34:36;;;;;;;26.30;16.33;;;;;;;6.21;100.00;101880.72;4953379;28;20047;-79
2023/11/22 01:37:04;;;;;;;27.52;17.48;;;;;;;6.29;100.00;101888.03;4954438;28;20059;-78
2023/11/22 01:39:31;;;;;;;29.52;17.42;;;;;;;6.28;100.00;101882.00;4955095;29;20097;-79
2023/11/22 01:41:58;;;;;;;26.90;17.42;;;;;;;6.33;100.00;101890.34;4952997;28;20482;-80
2023/11/22 01:44:26;;;;;;;27.63;17.33;;;;;;;6.27;100.00;101885.53;4955352;28;20055;-79
2023/11/22 01:46:53;;;;;;;25.42;16.42;;;;;;;6.19;100.00;101892.97;4954450;28;20059;-79
2023/11/22 01:49:20;;;;;;;25.45;16.27;;;;;;;6.24;100.00;101903.91;4955204;29;20107;-79
2023/11/22 01:51:47;;;;;;;24.75;15.95;;;;;;;6.20;100.00;101901.59;4962030;28;20492;-79
2023/11/22 01:54:16;;;;;;;25.17;16.40;;;;;;;6.24;100.00;101906.53;4955293;28;20158;-80
2023/11/22 01:56:50;;;;;;;22.50;15.82;;;;;;;6.17;100.00;101912.19;4956765;29;20051;-80
2023/11/22 01:59:17;;;;;;;25.17;15.70;;;;;;;6.12;100.00;101916.88;4955941;29;20474;-80
2023/11/22 02:01:44;;;;;;;21.80;15.25;;;;;;;6.19;100.00;101911.16;4956575;28;20138;-80
2023/11/22 02:04:13;;;;;;;23.42;15.05;;;;;;;6.17;100.00;101920.81;4956172;29;20482;-79
2023/11/22 02:06:43;;;;;;;22.73;15.15;;;;;;;6.10;100.00;101914.38;4956859;29;20061;-80
2023/11/22 02:09:13;;;;;;;23.17;15.38;;;;;;;6.17;100.00;101917.38;4956746;28;20498;-79
2023/11/22 02:11:42;;;;;;;23.75;14.95;;;;;;;6.17;100.00;101926.03;4957506;29;20047;-79
2023/11/22 02:14:08;;;;;;;24.00;15.05;;;;;;;6.08;100.00;101931.00;4956162;28;20106;-80
2023/11/22 02:16:35;;;;;;;23.08;15.45;;;;;;;6.02;100.00;101944.34;4958076;29;20051;-79
2023/11/22 02:19:02;;;;;;;20.48;14.18;;;;;;;6.05;100.00;101937.22;4957042;28;20143;-80
2023/11/22 02:21:29;;;;;;;22.15;13.88;;;;;;;5.92;100.00;101946.69;4958824;29;20106;-80
2023/11/22 02:23:57;;;;;;;22.42;14.43;;;;;;;5.87;100.00;101956.47;4958793;28;20090;-80
2023/11/22 02:26:24;;;;;;;22.15;13.98;;;;;;;5.84;100.00;101960.09;4959072;28;20078;-79
2023/11/22 02:28:52;;;;;;;23.88;14.50;;;;;;;5.85;100.00;101950.53;4957012;29;20130;-80
2023/11/22 02:31:19;;;;;;;22.70;14.02;;;;;;;5.78;100.00;101959.63;4957566;29;20474;-80
2023/11/22 02:33:45;;;;;;;23.27;14.13;;;;;;;5.80;100.00;101948.22;4957062;28;20138;-80
2023/11/22 02:36:13;;;;;;;20.90;13.60;;;;;;;5.79;100.00;101945.72;4958381;29;20115;-80
2023/11/22 02:38:40;;;;;;;21.48;13.77;;;;;;;5.79;100.00;101938.75;4958079;29;20066;-80
2023/11/22 02:41:08;;;;;;;23.33;13.60;;;;;;;5.74;100.00;101937.38;4959564;28;20078;-80
2023/11/22 02:43:35;;;;;;;19.38;13.63;;;;;;;5.67;100.00;101931.72;4961311;28;20055;-80
2023/11/22 02:46:03;;;;;;;22.30;13.77;;;;;;;5.77;100.00;101927.63;4961074;28;20051;-80
2023/11/22 02:48:29;;;;;;;21.92;14.75;;;;;;;5.75;100.00;101931.25;4961419;28;20516;-80
2023/11/22 02:50:56;;;;;;;25.90;14.48;;;;;;;5.66;100.00;101927.47;4960304;29;20111;-79
2023/11/22 02:53:22;;;;;;;19.55;13.43;;;;;;;5.72;100.00;101937.47;4964332;28;20074;-80
2023/11/22 02:55:49;;;;;;;24.38;14.65;;;;;;;5.66;100.00;101927.47;4968026;28;20170;-79
2023/11/22 02:58:17;;;;;;;21.35;13.70;;;;;;;5.64;100.00;101932.75;4953376;29;20057;-80
2023/11/22 03:00:43;;;;;;;21.98;15.23;;;;;;;5.63;100.00;101931.09;4961127;29;20063;-80
2023/11/22 03:03:11;;;;;;;22.20;14.65;;;;;;;5.65;100.00;101938.78;4961370;28;20063;-79
2023/11/22 03:05:38;;;;;;;27.13;15.27;;;;;;;5.60;100.00;101946.84;4960961;28;20058;-79
2023/11/22 03:08:07;;;;;;;22.90;14.32;;;;;;;5.52;100.00;101943.88;4961045;28;20430;-79
2023/11/22 03:10:33;;;;;;;25.02;14.27;;;;;;;5.51;100.00;101946.56;4961073;29;20051;-81
2023/11/22 03:13:00;;;;;;;25.45;15.30;;;;;;;5.40;100.00;101948.94;4958938;28;20082;-79
2023/11/22 03:15:28;;;;;;;23.00;14.75;;;;;;;5.42;100.00;101958.31;4958864;28;20078;-80
2023/11/22 03:17:54;;;;;;;21.98;14.13;;;;;;;5.37;100.00;101964.69;4959935;29;20561;-79
2023/11/22 03:20:21;;;;;;;26.48;15.98;;;;;;;5.28;100.00;101973.84;4964320;28;20089;-79
2023/11/22 03:22:50;;;;;;;24.27;14.77;;;;;;;5.29;100.00;101978.13;4960586;28;20055;-81
2023/11/22 03:25:17;;;;;;;29.02;15.60;;;;;;;5.20;100.00;101978.69;4949491;28;20431;-78
2023/11/22 03:27:44;;;;;;;23.23;15.07;;;;;;;5.19;100.00;101987.38;4956837;29;20403;-79
2023/11/22 03:30:12;;;;;;;23.90;15.45;;;;;;;5.08;100.00;101998.38;4948720;28;20154;-78
2023/11/22 03:32:41;;;;;;;26.15;16.10;;;;;;;5.10;100.00;102000.88;4956520;28;20047;-79
2023/11/22 03:35:09;;;;;;;24.70;15.43;;;;;;;5.12;100.00;102005.06;4960916;28;20045;-78
2023/11/22 03:37:35;;;;;;;26.73;15.30;;;;;;;5.09;100.00;102000.03;4957336;28;20058;-78
2023/11/22 03:40:02;;;;;;;29.67;16.48;;;;;;;4.99;100.00;102004.91;4956689;28;20111;-78
2023/11/22 03:42:29;;;;;;;30.90;16.95;;;;;;;4.94;100.00;102012.13;4956500;28;20524;-78
2023/11/22 03:44:58;;;;;;;25.55;16.58;;;;;;;4.93;100.00;102017.38;4956976;28;20133;-78
2023/11/22 03:47:25;;;;;;;30.35;17.25;;;;;;;4.86;100.00;102005.69;4975526;28;20530;-78
2023/11/22 03:49:53;;;;;;;29.05;17.27;;;;;;;4.89;100.00;102006.34;4975925;28;20078;-78
2023/11/22 03:52:20;;;;;;;27.02;16.52;;;;;;;4.82;100.00;102012.78;4971166;28;20097;-78
2023/11/22 03:54:47;;;;;;;30.20;17.58;;;;;;;4.73;100.00;102013.28;4967414;28;20055;-78
2023/11/22 03:57:13;;;;;;;31.27;18.20;;;;;;;4.76;100.00;102020.06;4957349;29;20051;-79
2023/11/22 03:59:41;;;;;;;32.17;16.95;;;;;;;4.72;100.00;102003.88;4957636;28;20047;-79
2023/11/22 04:02:08;;;;;;;27.45;16.95;;;;;;;4.65;100.00;102018.09;4958275;28;20316;-79
2023/11/22 04:04:35;;;;;;;28.80;17.08;;;;;;;4.61;100.00;102027.78;4955730;28;20079;-79
2023/11/22 04:07:03;;;;;;;32.25;17.92;;;;;;;4.66;100.00;102023.19;4954344;29;20528;-79
2023/11/22 04:09:30;;;;;;;26.15;16.65;;;;;;;4.61;100.00;102024.38;4960409;28;20062;-79
2023/11/22 04:11:56;;;;;;;30.75;17.75;;;;;;;4.45;100.00;102029.53;4960247;28;20047;-79
2023/11/22 04:14:23;;;;;;;28.30;16.48;;;;;;;4.47;100.00;102034.63;4958039;29;20126;-79
2023/11/22 04:16:49;;;;;;;32.72;16.70;;;;;;;4.43;100.00;102033.97;4955897;28;20130;-79
2023/11/22 04:19:16;;;;;;;26.60;16.83;;;;;;;4.39;100.00;102045.41;4957334;28;20074;-79
2023/11/22 04:21:42;;;;;;;29.85;17.38;;;;;;;4.28;100.00;102050.31;4956753;28;20039;-80
2023/11/22 04:24:12;;;;;;;35.22;17.63;;;;;;;4.36;100.00;102062.88;4954281;28;20502;-79
2023/11/22 04:26:38;;;;;;;29.38;17.13;;;;;;;4.29;100.00;102063.19;4956358;28;20057;-79
2023/11/22 04:29:06;;;;;;;29.92;18.00;;;;;;;4.27;100.00;102070.22;4955383;28;20079;-79
2023/11/22 04:31:32;;;;;;;29.52;18.67;;;;;;;4.23;100.00;102089.44;4954823;28;20047;-79
2023/11/22 04:34:00;;;;;;;32.90;20.00;;;;;;;4.15;100.00;102091.59;4954745;28;20070;-79
2023/11/22 04:36:26;;;;;;;31.50;18.67;;;;;;;4.15;100.00;102096.78;4957470;28;20102;-80
2023/11/22 04:38:53;;;;;;;35.08;19.70;;;;;;;4.08;100.00;102098.00;4954577;28;20134;-79
2023/11/22 04:41:22;;;;;;;35.20;19.52;;;;;;;4.18;100.00;102106.16;4953880;28;20103;-79
2023/11/22 04:43:49;;;;;;;32.42;18.67;;;;;;;4.08;100.00;102094.56;4953765;28;20053;-79
2023/11/22 04:46:15;;;;;;;34.15;18.55;;;;;;;4.13;100.00;102098.59;4951197;28;20455;-79
2023/11/22 04:48:44;;;;;;;39.65;21.58;;;;;;;4.10;100.00;102088.41;4954683;28;20055;-79
2023/11/22 04:51:11;;;;;;;39.65;20.70;;;;;;;4.02;100.00;102082.78;4956599;28;20146;-79
2023/11/22 04:53:38;;;;;;;37.50;20.13;;;;;;;3.96;100.00;102081.31;4957769;28;20134;-79
2023/11/22 04:56:05;;;;;;;38.55;20.48;;;;;;;3.87;100.00;102075.78;4954257;28;20071;-79
2023/11/22 04:58:34;;;;;;;35.90;19.50;;;;;;;3.89;100.00;102079.13;4955605;28;20055;-79
2023/11/22 05:01:01;;;;;;;37.67;20.23;;;;;;;3.78;100.00;102076.25;4956809;28;20043;-80
2023/11/22 05:03:28;;;;;;;35.55;19.13;;;;;;;3.83;100.00;102082.84;4960700;28;20070;-79
2023/11/22 05:05:54;;;;;;;34.63;19.67;;;;;;;3.80;100.00;102084.75;4956371;28;20130;-80
2023/11/22 05:08:21;;;;;;;36.65;19.83;;;;;;;3.71;100.00;102072.31;4958479;28;20074;-80
2023/11/22 05:10:47;;;;;;;36.47;19.42;;;;;;;3.70;100.00;102083.56;4960224;28;20076;-80
2023/11/22 05:13:14;;;;;;;40.25;21.05;;;;;;;3.68;100.00;102083.66;4961382;28;20094;-80
2023/11/22 05:15:42;;;;;;;35.20;18.75;;;;;;;3.73;100.00;102089.44;4957299;28;20051;-80
2023/11/22 05:18:08;;;;;;;35.67;20.35;;;;;;;3.70;100.00;102088.75;4965309;28;20077;-80
2023/11/22 05:20:35;;;;;;;35.85;20.27;;;;;;;3.63;100.00;102078.69;4959080;28;20122;-80
2023/11/22 05:23:02;;;;;;;37.80;20.73;;;;;;;3.64;100.00;102080.38;4958027;28;20047;-79
2023/11/22 05:25:29;;;;;;;38.17;19.08;;;;;;;3.59;100.00;102084.94;4959359;29;20465;-79
2023/11/22 05:27:55;;;;;;;36.13;18.77;;;;;;;3.59;100.00;102092.69;4958767;28;20074;-79
2023/11/22 05:30:22;;;;;;;40.60;20.10;;;;;;;3.61;100.00;102103.81;4965014;28;20114;-80
2023/11/22 05:32:51;;;;;;;37.13;19.23;;;;;;;3.66;100.00;102119.97;4957809;28;20057;-80
2023/11/22 05:35:19;;;;;;;32.88;19.25;;;;;;;3.58;100.00;102116.91;4952058;29;20059;-80
2023/11/22 05:37:46;;;;;;;34.53;18.75;;;;;;;3.57;100.00;102114.38;4957858;29;20399;-80
2023/11/22 05:40:13;;;;;;;33.40;19.52;;;;;;;3.53;100.00;102118.88;4957139;28;20080;-80
2023/11/22 05:42:40;;;;;;;34.85;18.88;;;;;;;3.55;100.00;102130.00;4957541;28;20494;-80
2023/11/22 05:45:08;;;;;;;31.83;18.83;;;;;;;3.53;100.00;102137.00;4957293;29;20502;-80
2023/11/22 05:47:34;;;;;;;36.95;19.10;;;;;;;3.57;100.00;102150.63;4958070;28;20047;-79
2023/11/22 05:50:02;;;;;;;38.35;18.65;;;;;;;3.61;100.00;102152.16;4957647;29;20047;-80
2023/11/22 05:52:29;;;;;;;38.35;19.23;;;;;;;3.50;100.00;102144.91;4957298;28;20126;-80
2023/11/22 05:54:56;;;;;;;35.83;19.85;;;;;;;3.52;100.00;102148.25;4958196;28;20055;-80
2023/11/22 05:57:23;;;;;;;37.72;21.02;;;;;;;3.49;100.00;102148.41;4959406;28;20106;-80
2023/11/22 05:59:49;;;;;;;39.97;20.45;;;;;;;3.51;100.00;102156.94;4957596;29;20115;-80
2023/11/22 06:02:16;;;;;;;35.58;20.15;;;;;;;3.51;100.00;102154.34;4958000;28;20059;-80
2023/11/22 06:04:43;;;;;;;32.08;19.80;;;;;;;3.47;100.00;102154.56;4987523;23;20054;-80
2023/11/22 06:07:11;;;;;;;41.42;21.08;;;;;;;3.50;100.00;102160.44;4996880;28;20092;-78
2023/11/22 06:09:37;;;;;;;39.92;21.33;;;;;;;3.46;100.00;102166.66;4996612;28;20512;-79
2023/11/22 06:12:05;;;;;;;42.42;21.85;;;;;;;3.43;100.00;102161.63;4994973;28;20057;-78
2023/11/22 06:14:32;;;;;;;39.33;21.63;;;;;;;3.41;100.00;102157.44;4994859;28;20047;-80
2023/11/22 06:16:58;;;;;;;41.28;21.02;;;;;;;3.39;100.00;102162.69;4994323;28;20042;-78
2023/11/22 06:19:25;;;;;;;37.38;21.92;;;;;;;3.39;100.00;102161.84;4999494;28;20089;-79
2023/11/22 06:21:51;;;;;;;32.05;19.23;;;;;;;3.29;100.00;102151.13;4999837;28;20484;-77
2023/11/22 06:24:20;;;;;;;37.80;20.92;;;;;;;3.31;100.00;102155.28;4997760;28;20080;-79
2023/11/22 06:26:47;;;;;;;38.85;20.08;;;;;;;3.26;100.00;102151.25;4994061;28;20082;-79
2023/11/22 06:29:14;;;;;;;36.33;20.40;;;;;;;3.20;100.00;102149.78;4999868;28;20098;-78
2023/11/22 06:31:41;;;;;;;40.70;20.90;;;;;;;3.20;100.00;102152.38;4998822;28;20056;-81
2023/11/22 06:34:08;;;;;;;36.45;20.67;;;;;;;3.17;100.00;102168.03;5006841;28;20051;-80
2023/11/22 06:36:35;;;;;;;38.05;19.73;;;;;;;3.09;100.00;102162.38;5004319;28;20137;-77
2023/11/22 06:39:02;;;;;;;42.50;22.42;;;;;;;3.08;100.00;102159.88;4991501;28;20145;-79
2023/11/22 06:41:30;;;;;;;37.10;21.20;;;;;;;2.99;100.00;102166.28;4997831;28;20050;-79
2023/11/22 06:43:57;;;;;;;35.50;19.77;;;;;;;2.92;100.00;102168.31;4996877;28;20100;-79
2023/11/22 06:46:24;;;;;;;40.92;20.67;;;;;;;2.93;100.00;102170.00;4993498;28;20093;-79
2023/11/22 06:48:51;;;;;;;38.05;21.40;;;;;;;2.88;100.00;102171.94;4996583;28;20050;-79
2023/11/22 06:51:18;;;;;;;37.17;20.75;;;;;;;2.80;100.00;102178.38;4995863;28;20137;-79
2023/11/22 06:53:44;;;;;;;43.88;22.23;;;;;;;2.69;100.00;102171.09;4994866;28;20042;-80
2023/11/22 06:56:11;;;;;;;38.75;20.40;;;;;;;2.74;100.00;102187.25;4995304;28;20146;-78
2023/11/22 06:58:39;;;;;;;41.85;21.67;;;;;;;2.65;100.00;102187.66;4997129;28;20141;-79
2023/11/22 07:01:07;;;;;;;36.15;21.08;;;;;;;2.63;100.00;102187.72;4996959;28;20149;-77
2023/11/22 07:03:33;;;;;;;34.78;19.15;;;;;;;2.69;100.00;102180.59;4995055;28;20055;-78
2023/11/22 07:06:00;;;;;;;42.72;21.23;;;;;;;2.65;100.00;102190.22;4993251;28;20081;-79
2023/11/22 07:08:28;;;;;;;40.03;20.08;;;;;;;2.66;100.00;102184.16;4991864;28;20062;-78
2023/11/22 07:10:56;;;;;;;42.25;21.00;;;;;;;2.59;100.00;102186.16;4990306;28;20049;-79
2023/11/22 07:13:24;;;;;;;35.80;19.80;;;;;;;2.59;100.00;102200.84;4990891;28;20221;-79
2023/11/22 07:15:53;;;;;;;41.80;22.02;;;;;;;2.55;100.00;102204.44;5001802;28;20057;-79
2023/11/22 07:18:23;;;;;;;41.70;20.80;;;;;;;2.57;100.00;102202.66;4996635;28;20105;-79
2023/11/22 07:20:50;;;;;;;36.70;20.05;;;;;;;2.62;100.00;102200.69;4998585;28;20063;-80
2023/11/22 07:23:19;;;;;;;40.53;21.25;;;;;;;2.64;100.00;102214.41;5000050;28;20054;-79
2023/11/22 07:25:46;;;;;;;38.28;20.92;;;;;;;2.69;100.00;102216.78;5003191;28;20113;-79
2023/11/22 07:28:13;;;;;;;36.40;19.40;;;;;;;2.67;100.00;102216.84;4999125;28;20097;-79
2023/11/22 07:30:41;;;;;;;41.15;20.80;;;;;;;2.71;100.00;102233.91;5002075;28;20042;-79
2023/11/22 07:33:10;;;;;;;39.42;21.27;;;;;;;2.82;100.00;102239.47;5001385;28;20505;-80
2023/11/22 07:35:36;;;;;;;36.10;21.17;;;;;;;3.05;100.00;102251.34;4998579;28;20057;-80
2023/11/22 07:38:04;;;;;;;39.33;21.23;;;;;;;3.31;100.00;102247.56;5000703;28;20051;-80
2023/11/22 07:40:30;;;;;;;37.38;21.55;;;;;;;3.52;100.00;102262.13;5001306;28;20394;-79
2023/11/22 07:42:57;;;;;;;39.78;20.08;;;;;;;3.76;100.00;102280.03;4998088;28;20441;-81
2023/11/22 07:45:24;;;;;;;36.72;20.23;;;;;;;4.01;100.00;102290.91;5008767;28;20179;-81
2023/11/22 07:47:52;;;;;;;38.05;21.63;;;;;;;4.29;100.00;102286.03;4997755;28;20074;-82
2023/11/22 07:50:21;;;;;;;33.15;18.60;;;;;;;4.51;100.00;102285.00;4981880;28;20076;-78
2023/11/22 07:52:48;;;;;;;34.80;19.25;;;;;;;4.70;100.00;102283.16;4999076;28;20039;-80
2023/11/22 07:55:17;;;;;;;27.08;17.25;;;;;;;4.98;100.00;102286.00;5002339;28;20323;-78
2023/11/22 07:57:44;;;;;;;26.77;17.10;;;;;;;5.19;100.00;102278.03;4996568;28;20128;-79
2023/11/22 08:00:12;;;;;;;29.38;18.95;;;;;;;5.22;100.00;102260.50;4999035;28;20918;-79
2023/11/22 08:02:39;;;;;;;31.58;20.48;;;;;;;5.31;100.00;102264.38;5002879;28;20129;-79
2023/11/22 08:05:08;;;;;;;30.05;18.30;;;;;;;5.75;100.00;102255.91;4998300;28;20149;-78
2023/11/22 08:07:38;;;;;;;25.13;18.25;;;;;;;5.56;100.00;102228.38;4994823;28;20054;-80
2023/11/22 08:10:09;;;;;;;28.67;20.25;;;;;;;5.39;100.00;102233.66;4998496;28;20074;-79
2023/11/22 08:12:36;;;;;;;24.88;17.75;;;;;;;5.20;100.00;102218.22;4998060;28;20043;-77
2023/11/22 08:15:03;;;;;;;26.52;17.55;;;;;;;5.13;100.00;102216.06;5000034;28;20077;-79
2023/11/22 08:17:32;;;;;;;25.60;17.63;;;;;;;4.90;100.00;102201.72;4997214;28;20170;-77
2023/11/22 08:19:58;;;;;;;31.00;17.33;;;;;;;4.89;100.00;102207.81;4996933;28;20074;-80
2023/11/22 08:22:27;;;;;;;25.33;16.25;;;;;;;4.84;100.00;102205.47;4996758;28;20093;-77
2023/11/22 08:24:57;;;;;;;26.88;17.63;;;;;;;4.80;100.00;102216.91;4996544;28;20046;-77
2023/11/22 08:27:24;;;;;;;26.23;17.58;;;;;;;4.72;100.00;102206.13;4993611;28;20154;-78
2023/11/22 08:29:50;;;;;;;27.13;18.58;;;;;;;4.70;100.00;102207.97;4994873;28;20500;-78
2023/11/22 08:32:20;;;;;;;29.40;18.45;;;;;;;4.63;100.00;102204.84;4990314;28;20054;-79
2023/11/22 08:34:47;;;;;;;26.33;16.77;;;;;;;4.54;100.00;102204.47;4995082;28;20070;-79
2023/11/22 08:37:13;;;;;;;28.83;18.40;;;;;;;4.43;100.00;102217.97;4996387;28;20485;-78
2023/11/22 08:39:40;;;;;;;29.55;18.58;;;;;;;4.54;100.00;102217.44;4988000;28;20129;-79
2023/11/22 08:42:09;;;;;;;27.33;16.83;;;;;;;4.47;100.00;102236.81;4993034;28;20138;-78
2023/11/22 08:44:36;;;;;;;33.88;17.98;;;;;;;4.44;100.00;102231.78;4989879;28;20046;-79
2023/11/22 08:47:03;;;;;;;31.65;18.05;;;;;;;4.45;100.00;102246.41;4992209;28;20523;-78
2023/11/22 08:49:30;;;;;;;29.67;18.95;;;;;;;4.55;100.00;102245.88;4993710;28;20084;-78
2023/11/22 08:51:59;;;;;;;28.50;17.98;;;;;;;4.61;100.00;102253.34;4993194;28;20046;-77
2023/11/22 08:54:28;;;;;;;28.15;17.60;;;;;;;4.63;100.00;102269.66;4991767;28;20113;-78
2023/11/22 08:56:56;;;;;;;28.20;17.42;;;;;;;4.58;100.00;102281.19;4995612;28;20113;-75
2023/11/22 08:59:24;;;;;;;27.98;17.30;;;;;;;4.60;100.00;102279.34;4995581;28;20062;-78
2023/11/22 09:01:50;;;;;;;26.15;17.10;;;;;;;4.68;100.00;102303.16;4994474;28;20140;-78
2023/11/22 09:04:18;;;;;;;29.63;17.20;;;;;;;4.72;100.00;102309.84;4980967;28;20165;-78
2023/11/22 09:06:47;;;;;;;28.10;15.93;;;;;;;4.68;100.00;102318.72;4991520;28;20523;-79
2023/11/22 09:09:15;;;;;;;26.60;15.55;;;;;;;4.78;100.00;102314.72;4992632;28;20043;-77
2023/11/22 09:11:42;;;;;;;24.38;15.40;;;;;;;4.81;100.00;102324.94;4994253;28;20139;-79
2023/11/22 09:14:10;;;;;;;23.70;14.93;;;;;;;4.79;100.00;102311.19;4993730;28;20137;-79
2023/11/22 09:16:39;;;;;;;25.67;15.50;;;;;;;4.94;100.00;102310.44;4993235;28;20086;-79
2023/11/22 09:19:07;;;;;;;29.48;15.65;;;;;;;4.88;100.00;102315.09;4993292;28;20050;-79
2023/11/22 09:21:34;;;;;;;24.75;15.05;;;;;;;4.92;100.00;102290.66;4994505;28;20449;-77
2023/11/22 09:24:02;;;;;;;23.55;13.77;;;;;;;5.10;100.00;102279.34;4994074;28;20158;-78
2023/11/22 09:26:29;;;;;;;20.73;13.68;;;;;;;5.24;100.00;102281.19;4995213;28;20133;-78
2023/11/22 09:28:56;;;;;;;20.55;13.57;;;;;;;5.25;99.62;102281.09;4991055;28;20098;-78
2023/11/22 09:31:23;;;;;;;22.67;13.85;;;;;;;5.47;99.46;102277.38;4993139;28;20109;-76
2023/11/22 09:33:51;;;;;;;21.70;14.02;;;;;;;5.54;98.52;102270.94;4993284;28;20101;-79
2023/11/22 09:36:18;;;;;;;20.33;12.85;;;;;;;5.66;97.56;102262.47;4985844;28;20054;-78
2023/11/22 09:38:44;;;;;;;19.13;13.48;;;;;;;5.85;96.67;102257.06;4994336;28;20142;-78
2023/11/22 09:41:11;;;;;;;19.42;12.20;;;;;;;5.86;95.22;102256.16;4993995;28;20050;-77
2023/11/22 09:43:40;;;;;;;18.33;12.32;;;;;;;5.91;93.78;102246.38;4992222;28;20121;-80
2023/11/22 09:46:11;;;;;;;15.48;11.38;;;;;;;5.98;92.66;102239.91;4997348;28;20479;-78
2023/11/22 09:48:41;;;;;;;16.20;11.05;;;;;;;6.08;91.92;102230.69;4992558;28;20054;-78
2023/11/22 09:51:20;;;;;;;19.90;11.23;;;;;;;6.25;90.56;102209.72;4991190;28;20046;-79
2023/11/22 09:53:53;;;;;;;19.75;10.00;;;;;;;6.46;88.69;102196.41;5007046;28;20046;-80
2023/11/22 09:56:21;;;;;;;14.90;10.27;;;;;;;6.52;87.11;102198.63;5006645;28;20574;-79
2023/11/22 09:59:08;;;;;;;12.60;8.82;;;;;;;6.53;85.98;102197.69;5008026;28;20050;-78
2023/11/22 10:01:36;;;;;;;15.43;8.25;;;;;;;6.65;83.33;102169.16;5006767;28;20061;-76
2023/11/22 10:04:05;;;;;;;14.50;8.93;;;;;;;6.70;83.02;102171.50;5002819;28;20433;-79
2023/11/22 10:06:35;;;;;;;13.02;9.20;;;;;;;6.83;83.74;102175.03;4998563;28;20050;-79
2023/11/22 10:09:06;;;;;;;13.60;9.52;;;;;;;6.74;83.13;102178.19;4998492;28;20050;-79
2023/11/22 10:11:33;;;;;;;11.15;8.30;;;;;;;6.74;81.03;102148.72;4998934;28;20122;-79
2023/11/22 10:13:59;;;;;;;11.55;8.48;;;;;;;6.78;79.20;102130.25;4997377;28;20107;-80
2023/11/22 10:16:26;;;;;;;13.88;8.98;;;;;;;6.80;80.23;102149.19;4996424;28;20129;-79
2023/11/22 10:18:53;;;;;;;14.27;8.57;;;;;;;6.83;80.56;102158.56;4996214;28;20057;-78
2023/11/22 10:21:21;;;;;;;11.65;8.10;;;;;;;6.82;80.58;102160.34;5001280;28;20107;-78
2023/11/22 10:23:51;;;;;;;13.52;8.77;;;;;;;7.02;80.29;102158.28;4995226;28;20054;-79
2023/11/22 10:26:18;;;;;;;14.27;8.70;;;;;;;7.12;80.06;102167.16;4992159;28;20133;-78
2023/11/22 10:28:45;;;;;;;12.15;7.18;;;;;;;7.09;78.76;102149.16;5000783;28;20110;-80
2023/11/22 10:31:12;;;;;;;10.40;6.20;;;;;;;7.05;75.75;102116.44;5001013;28;20050;-80
2023/11/22 10:33:43;;;;;;;9.95;6.80;;;;;;;7.21;75.54;102123.16;5000570;28;20081;-79
2023/11/22 10:36:10;;;;;;;10.80;7.10;;;;;;;7.21;75.39;102127.53;5000847;28;20086;-79
2023/11/22 10:38:37;;;;;;;10.32;6.65;;;;;;;7.25;74.88;102126.41;5000465;28;20089;-79
2023/11/22 10:41:07;;;;;;;10.07;6.35;;;;;;;7.17;72.63;102111.28;4992732;28;20090;-77
2023/11/22 10:43:35;;;;;;;9.15;6.68;;;;;;;7.09;71.76;102125.75;5000447;28;20058;-77
2023/11/22 10:46:04;;;;;;;8.02;5.55;;;;;;;7.04;70.79;102119.97;5001450;28;20061;-79
2023/11/22 10:48:32;;;;;;;9.55;5.90;;;;;;;7.15;70.40;102127.94;5001808;28;20054;-80
2023/11/22 10:51:03;;;;;;;10.40;6.38;;;;;;;7.14;71.05;102141.88;4993291;28;20057;-80
2023/11/22 10:53:34;;;;;;;7.43;5.20;;;;;;;7.18;70.19;102131.16;5000889;28;20567;-78
2023/11/22 10:56:11;;;;;;;7.25;4.40;;;;;;;7.24;68.60;102122.97;5000978;28;20519;-80
2023/11/22 10:58:42;;;;;;;8.20;5.70;;;;;;;7.39;69.10;102143.75;5002265;28;20416;-80
2023/11/22 11:01:09;;;;;;;8.23;5.13;;;;;;;7.44;69.25;102142.53;5003896;28;20081;-79
2023/11/22 11:03:44;;;;;;;7.70;5.78;;;;;;;7.42;68.10;102146.16;5002922;28;20046;-80
2023/11/22 11:06:14;;;;;;;5.88;4.57;;;;;;;7.44;68.10;102163.38;5001016;28;20129;-79
2023/11/22 11:08:44;;;;;;;8.02;4.93;;;;;;;7.56;67.83;102172.97;4996944;28;20105;-79
2023/11/22 11:11:15;;;;;;;5.22;4.30;;;;;;;7.48;67.68;102182.25;4998436;28;20092;-79
2023/11/22 11:13:42;;;;;;;7.55;5.35;;;;;;;7.33;67.80;102194.47;5003261;28;20050;-78
2023/11/22 11:16:09;;;;;;;8.50;4.72;;;;;;;7.70;68.39;102189.50;5001010;28;20505;-78